createdAt,value
2022-12-12T00:00:32.037Z,-0.55
2022-12-12T00:03:23.846Z,-0.57
2022-12-12T00:05:56.961Z,-0.61
2022-12-12T00:08:28.800Z,-0.64
2022-12-12T00:11:00.657Z,-0.65
2022-12-12T00:13:32.580Z,-0.63
2022-12-12T00:16:05.424Z,-0.60
2022-12-12T00:18:38.643Z,-0.57
2022-12-12T00:21:16.120Z,-0.54
2022-12-12T00:23:47.962Z,-0.52
2022-12-12T00:26:21.162Z,-0.50
2022-12-12T00:28:53.354Z,-0.47
2022-12-12T00:31:25.297Z,-0.43
2022-12-12T00:33:57.233Z,-0.41
2022-12-12T00:36:30.845Z,-0.39
2022-12-12T00:39:02.813Z,-0.37
2022-12-12T00:41:34.601Z,-0.36
2022-12-12T00:44:06.393Z,-0.33
2022-12-12T00:46:38.299Z,-0.31
2022-12-12T00:49:10.797Z,-0.34
2022-12-12T00:51:42.640Z,-0.38
2022-12-12T00:54:14.641Z,-0.41
2022-12-12T00:56:46.710Z,-0.44
2022-12-12T00:59:19.973Z,-0.46
2022-12-12T01:01:51.735Z,-0.48
2022-12-12T01:04:23.793Z,-0.52
2022-12-12T01:06:55.491Z,-0.55
2022-12-12T01:09:27.274Z,-0.56
2022-12-12T01:11:59.022Z,-0.57
2022-12-12T01:14:31.239Z,-0.54
2022-12-12T01:17:02.976Z,-0.50
2022-12-12T01:19:34.863Z,-0.47
2022-12-12T01:22:06.546Z,-0.42
2022-12-12T01:24:38.171Z,-0.37
2022-12-12T01:27:10.322Z,-0.31
2022-12-12T01:29:42.223Z,-0.28
2022-12-12T01:32:14.164Z,-0.26
2022-12-12T01:34:45.746Z,-0.25
2022-12-12T01:37:17.381Z,-0.24
2022-12-12T01:39:49.219Z,-0.25
2022-12-12T01:42:21.658Z,-0.25
2022-12-12T01:44:54.443Z,-0.25
2022-12-12T01:47:27.251Z,-0.31
2022-12-12T01:50:01.461Z,-0.37
2022-12-12T01:52:35.992Z,-0.40
2022-12-12T01:55:09.656Z,-0.43
2022-12-12T01:57:44.805Z,-0.46
2022-12-12T02:00:17.142Z,-0.43
2022-12-12T02:02:49.868Z,-0.40
2022-12-12T02:05:25.775Z,-0.39
2022-12-12T02:07:58.822Z,-0.38
2022-12-12T02:10:31.425Z,-0.36
2022-12-12T02:13:04.796Z,-0.34
2022-12-12T02:15:44.362Z,-0.34
2022-12-12T02:18:20.369Z,-0.32
2022-12-12T02:21:04.088Z,-0.31
2022-12-12T02:24:01.950Z,-0.31
2022-12-12T02:26:48.156Z,-0.32
2022-12-12T02:29:39.505Z,-0.35
2022-12-12T02:32:14.820Z,-0.39
2022-12-12T02:34:51.397Z,-0.44
2022-12-12T02:37:27.508Z,-0.47
2022-12-12T02:40:05.688Z,-0.47
2022-12-12T02:42:41.911Z,-0.46
2022-12-12T02:45:16.125Z,-0.43
2022-12-12T02:47:50.619Z,-0.39
2022-12-12T02:50:24.523Z,-0.35
2022-12-12T02:52:56.840Z,-0.30
2022-12-12T02:55:32.587Z,-0.22
2022-12-12T02:58:08.493Z,-0.18
2022-12-12T03:00:43.931Z,-0.15
2022-12-12T03:03:42.501Z,-0.10
2022-12-12T03:06:41.230Z,-0.09
2022-12-12T03:09:17.975Z,-0.08
2022-12-12T03:11:57.631Z,-0.08
2022-12-12T03:14:36.632Z,-0.08
2022-12-12T03:17:12.830Z,-0.07
2022-12-12T03:19:48.619Z,-0.07
2022-12-12T03:22:26.520Z,-0.10
2022-12-12T03:25:02.900Z,-0.13
2022-12-12T03:27:39.522Z,-0.17
2022-12-12T03:30:13.672Z,-0.20
2022-12-12T03:32:48.667Z,-0.22
2022-12-12T03:35:22.679Z,-0.25
2022-12-12T03:37:56.861Z,-0.27
2022-12-12T03:40:30.256Z,-0.30
2022-12-12T03:43:04.382Z,-0.33
2022-12-12T03:45:38.797Z,-0.36
2022-12-12T03:48:15.099Z,-0.36
2022-12-12T03:50:51.053Z,-0.37
2022-12-12T03:53:26.501Z,-0.38
2022-12-12T03:56:01.236Z,-0.37
2022-12-12T03:58:35.386Z,-0.33
2022-12-12T04:01:11.310Z,-0.29
2022-12-12T04:03:51.120Z,-0.25
2022-12-12T04:06:28.884Z,-0.22
2022-12-12T04:09:20.151Z,-0.15
2022-12-12T04:12:15.807Z,-0.09
2022-12-12T04:14:58.522Z,-0.04
2022-12-12T04:17:34.090Z,-0.02
2022-12-12T04:20:28.178Z,-0.01
2022-12-12T04:23:18.893Z,-0.02
2022-12-12T04:26:13.174Z,-0.02
2022-12-12T04:28:48.719Z,-0.04
2022-12-12T04:31:22.958Z,-0.08
2022-12-12T04:33:56.747Z,-0.10
2022-12-12T04:36:29.279Z,-0.11
2022-12-12T04:39:02.264Z,-0.10
2022-12-12T04:41:36.359Z,-0.08
2022-12-12T04:44:12.097Z,-0.08
2022-12-12T04:46:44.600Z,-0.06
2022-12-12T04:49:19.835Z,-0.02
2022-12-12T04:51:54.682Z,0.02
2022-12-12T04:54:30.534Z,0.07
2022-12-12T04:57:03.420Z,0.07
2022-12-12T04:59:35.810Z,0.11
2022-12-12T05:02:11.459Z,0.14
2022-12-12T05:04:47.957Z,0.16
2022-12-12T05:07:23.192Z,0.15
2022-12-12T05:09:55.295Z,0.13
2022-12-12T05:12:27.177Z,0.09
2022-12-12T05:14:58.974Z,0.07
2022-12-12T05:17:35.215Z,0.04
2022-12-12T05:20:07.629Z,0.02
2022-12-12T05:22:39.389Z,0.01
2022-12-12T05:25:11.953Z,0.01
2022-12-12T05:27:44.178Z,0.05
2022-12-12T05:30:16.728Z,0.08
2022-12-12T05:32:48.575Z,0.12
2022-12-12T05:35:20.530Z,0.15
2022-12-12T05:37:52.530Z,0.21
2022-12-12T05:40:24.424Z,0.24
2022-12-12T05:42:57.118Z,0.28
2022-12-12T05:45:29.077Z,0.31
2022-12-12T05:48:00.921Z,0.35
2022-12-12T05:50:32.747Z,0.37
2022-12-12T05:53:04.311Z,0.37
2022-12-12T05:55:36.928Z,0.34
2022-12-12T05:58:08.838Z,0.33
2022-12-12T06:00:40.993Z,0.34
2022-12-12T06:03:13.065Z,0.36
2022-12-12T06:05:45.215Z,0.40
2022-12-12T06:08:20.946Z,0.42
2022-12-12T06:10:56.118Z,0.44
2022-12-12T06:13:27.851Z,0.49
2022-12-12T06:15:59.586Z,0.54
2022-12-12T06:18:32.064Z,0.56
2022-12-12T06:21:08.580Z,0.58
2022-12-12T06:23:41.328Z,0.58
2022-12-12T06:26:14.474Z,0.58
2022-12-12T06:28:47.046Z,0.59
2022-12-12T06:31:19.025Z,0.57
2022-12-12T06:33:50.558Z,0.56
2022-12-12T06:36:25.884Z,0.58
2022-12-12T06:38:59.482Z,0.58
2022-12-12T06:41:32.203Z,0.60
2022-12-12T06:44:04.742Z,0.63
2022-12-12T06:46:36.923Z,0.68
2022-12-12T06:49:10.247Z,0.70
2022-12-12T06:51:44.626Z,0.71
2022-12-12T06:54:18.702Z,0.74
2022-12-12T06:56:50.881Z,0.77
2022-12-12T06:59:22.792Z,0.79
2022-12-12T07:01:56.488Z,0.81
2022-12-12T07:04:28.570Z,0.83
2022-12-12T07:07:00.334Z,0.84
2022-12-12T07:09:32.053Z,0.86
2022-12-12T07:12:04.004Z,0.89
2022-12-12T07:14:35.929Z,0.90
2022-12-12T07:17:07.688Z,0.94
2022-12-12T07:19:39.826Z,0.97
2022-12-12T07:22:11.624Z,1.01
2022-12-12T07:24:43.379Z,1.04
2022-12-12T07:27:20.094Z,1.08
2022-12-12T07:29:54.108Z,1.12
2022-12-12T07:32:25.964Z,1.13
2022-12-12T07:34:58.212Z,1.14
2022-12-12T07:37:29.857Z,1.15
2022-12-12T07:40:02.123Z,1.14
2022-12-12T07:42:33.815Z,1.12
2022-12-12T07:45:05.615Z,1.11
2022-12-12T07:47:37.188Z,1.10
2022-12-12T07:50:10.059Z,1.07
2022-12-12T07:52:42.031Z,1.03
2022-12-12T07:55:14.188Z,1.01
2022-12-12T07:57:47.154Z,1.02
2022-12-12T08:00:20.443Z,1.04
2022-12-12T08:02:52.652Z,1.08
2022-12-12T08:05:24.829Z,1.13
2022-12-12T08:07:56.575Z,1.18
2022-12-12T08:10:28.128Z,1.22
2022-12-12T08:13:00.099Z,1.29
2022-12-12T08:15:32.249Z,1.36
2022-12-12T08:18:03.964Z,1.40
2022-12-12T08:20:35.535Z,1.44
2022-12-12T08:23:07.571Z,1.47
2022-12-12T08:25:39.465Z,1.47
2022-12-12T08:28:10.968Z,1.46
2022-12-12T08:30:42.845Z,1.44
2022-12-12T08:33:14.614Z,1.43
2022-12-12T08:35:46.689Z,1.41
2022-12-12T08:38:18.380Z,1.42
2022-12-12T08:40:50.394Z,1.45
2022-12-12T08:43:22.175Z,1.50
2022-12-12T08:45:53.776Z,1.55
2022-12-12T08:48:26.030Z,1.59
2022-12-12T08:50:58.735Z,1.64
2022-12-12T08:53:31.312Z,1.69
2022-12-12T08:56:02.930Z,1.73
2022-12-12T08:58:34.716Z,1.75
2022-12-12T09:01:10.930Z,1.75
2022-12-12T09:03:42.837Z,1.77
2022-12-12T09:06:14.722Z,1.78
2022-12-12T09:08:46.955Z,1.81
2022-12-12T09:11:19.328Z,1.85
2022-12-12T09:13:51.297Z,1.89
2022-12-12T09:16:26.134Z,1.95
2022-12-12T09:18:58.195Z,2.00
2022-12-12T09:21:30.642Z,2.01
2022-12-12T09:24:03.002Z,2.01
2022-12-12T09:26:34.916Z,2.00
2022-12-12T09:29:07.595Z,1.98
2022-12-12T09:31:39.220Z,1.97
2022-12-12T09:34:10.784Z,1.96
2022-12-12T09:36:42.771Z,1.96
2022-12-12T09:39:15.129Z,1.95
2022-12-12T09:41:46.992Z,1.98
2022-12-12T09:44:22.937Z,2.02
2022-12-12T09:46:57.929Z,2.06
2022-12-12T09:49:41.519Z,2.08
2022-12-12T09:52:17.497Z,2.09
2022-12-12T09:54:49.200Z,2.12
2022-12-12T09:57:26.813Z,2.14
2022-12-12T10:00:03.838Z,2.16
2022-12-12T10:02:46.345Z,2.17
2022-12-12T10:05:23.695Z,2.20
2022-12-12T10:07:59.502Z,2.22
2022-12-12T10:10:33.705Z,2.24
2022-12-12T10:13:06.660Z,2.27
2022-12-12T10:15:40.823Z,2.33
2022-12-12T10:18:16.685Z,2.40
2022-12-12T10:20:51.336Z,2.43
2022-12-12T10:23:26.663Z,2.44
2022-12-12T10:25:58.943Z,2.43
2022-12-12T10:28:33.251Z,2.45
2022-12-12T10:31:11.290Z,2.49
2022-12-12T10:33:49.704Z,2.53
2022-12-12T10:36:27.347Z,2.57
2022-12-12T10:39:08.096Z,2.63
2022-12-12T10:41:44.938Z,2.67
2022-12-12T10:44:21.723Z,2.70
2022-12-12T10:46:58.473Z,2.77
2022-12-12T10:49:30.895Z,2.86
2022-12-12T10:52:06.800Z,2.92
2022-12-12T10:54:43.862Z,2.98
2022-12-12T10:57:20.157Z,3.06
2022-12-12T10:59:53.869Z,3.13
2022-12-12T11:02:28.456Z,3.17
2022-12-12T11:05:09.020Z,3.18
2022-12-12T11:07:41.503Z,3.17
2022-12-12T11:10:26.846Z,3.12
2022-12-12T11:13:03.540Z,3.12
2022-12-12T11:15:47.128Z,3.08
2022-12-12T11:18:20.389Z,3.10
2022-12-12T11:20:53.762Z,3.10
2022-12-12T11:23:27.407Z,3.05
2022-12-12T11:26:00.744Z,2.99
2022-12-12T11:28:35.386Z,2.95
2022-12-12T11:31:09.032Z,2.92
2022-12-12T11:33:43.691Z,2.90
2022-12-12T11:36:17.231Z,2.88
2022-12-12T11:38:51.399Z,2.81
2022-12-12T11:41:23.763Z,2.72
2022-12-12T11:44:00.657Z,2.65
2022-12-12T11:46:33.970Z,2.63
2022-12-12T11:49:06.865Z,2.59
2022-12-12T11:51:40.504Z,2.56
2022-12-12T11:54:15.169Z,2.57
2022-12-12T11:56:52.737Z,2.57
2022-12-12T11:59:37.255Z,2.62
2022-12-12T12:02:22.591Z,2.66
2022-12-12T12:05:00.371Z,2.68
2022-12-12T12:07:45.491Z,2.74
2022-12-12T12:10:24.273Z,2.75
2022-12-12T12:13:01.863Z,2.75
2022-12-12T12:15:40.198Z,2.73
2022-12-12T12:18:31.303Z,2.68
2022-12-12T12:21:12.198Z,2.64
2022-12-12T12:23:50.674Z,2.61
2022-12-12T12:26:26.731Z,2.56
2022-12-12T12:29:10.632Z,2.49
2022-12-12T12:31:47.680Z,2.48
2022-12-12T12:34:23.791Z,2.49
2022-12-12T12:37:03.550Z,2.49
2022-12-12T12:39:42.768Z,2.53
2022-12-12T12:42:20.987Z,2.60
2022-12-12T12:44:56.813Z,2.65
2022-12-12T12:47:37.159Z,2.70
2022-12-12T12:50:18.026Z,2.76
2022-12-12T12:52:55.295Z,2.76
2022-12-12T12:55:32.360Z,2.76
2022-12-12T12:58:06.875Z,2.77
2022-12-12T13:00:39.435Z,2.79
2022-12-12T13:03:15.294Z,2.75
2022-12-12T13:05:50.141Z,2.69
2022-12-12T13:08:26.333Z,2.64
2022-12-12T13:11:01.713Z,2.56
2022-12-12T13:13:34.518Z,2.58
2022-12-12T13:16:09.839Z,2.95
2022-12-12T13:18:46.252Z,2.81
2022-12-12T13:21:22.776Z,2.42
2022-12-12T13:23:58.327Z,2.32
2022-12-12T13:26:35.494Z,2.27
2022-12-12T13:29:15.692Z,2.20
2022-12-12T13:32:07.115Z,2.13
2022-12-12T13:34:41.067Z,2.07
2022-12-12T13:37:14.648Z,2.03
2022-12-12T13:39:46.864Z,2.03
2022-12-12T13:42:19.160Z,2.02
2022-12-12T13:44:51.222Z,2.01
2022-12-12T13:47:47.658Z,2.04
2022-12-12T13:50:23.302Z,2.09
2022-12-12T13:53:23.855Z,2.10
2022-12-12T13:56:22.174Z,2.15
2022-12-12T13:58:54.091Z,2.17
2022-12-12T14:01:40.762Z,2.18
2022-12-12T14:04:26.057Z,2.16
2022-12-12T14:07:05.558Z,2.12
2022-12-12T14:09:50.601Z,2.10
2022-12-12T14:12:31.109Z,2.06
2022-12-12T14:15:06.199Z,2.03
2022-12-12T14:17:42.550Z,1.97
2022-12-12T14:20:25.641Z,1.91
2022-12-12T14:23:25.627Z,1.87
2022-12-12T14:25:58.858Z,1.80
2022-12-12T14:28:32.443Z,1.78
2022-12-12T14:31:09.801Z,1.78
2022-12-12T14:33:54.925Z,1.80
2022-12-12T14:36:37.204Z,1.85
2022-12-12T14:39:14.850Z,1.89
2022-12-12T14:41:47.520Z,1.93
2022-12-12T14:44:38.181Z,1.96
2022-12-12T14:47:11.774Z,2.04
2022-12-12T14:49:43.920Z,2.11
2022-12-12T14:52:18.564Z,2.17
2022-12-12T14:54:51.006Z,2.21
2022-12-12T14:57:24.689Z,2.23
2022-12-12T14:59:56.479Z,2.23
2022-12-12T15:02:31.348Z,2.22
2022-12-12T15:05:05.643Z,2.19
2022-12-12T15:07:38.847Z,2.19
2022-12-12T15:10:23.964Z,2.18
2022-12-12T15:12:56.612Z,2.16
2022-12-12T15:15:29.602Z,2.13
2022-12-12T15:18:02.458Z,2.13
2022-12-12T15:20:34.461Z,2.14
2022-12-12T15:23:07.676Z,2.15
2022-12-12T15:25:40.937Z,2.15
2022-12-12T15:28:17.362Z,2.17
2022-12-12T15:30:52.302Z,2.22
2022-12-12T15:33:25.278Z,2.26
2022-12-12T15:36:01.773Z,2.32
2022-12-12T15:38:35.952Z,2.39
2022-12-12T15:41:13.334Z,2.46
2022-12-12T15:43:45.639Z,2.50
2022-12-12T15:46:17.837Z,2.49
2022-12-12T15:48:50.708Z,2.50
2022-12-12T15:51:25.327Z,2.50
2022-12-12T15:53:58.290Z,2.50
2022-12-12T15:56:30.886Z,2.47
2022-12-12T15:59:17.079Z,2.42
2022-12-12T16:01:49.372Z,2.37
2022-12-12T16:04:26.108Z,2.33
2022-12-12T16:07:16.121Z,2.31
2022-12-12T16:10:00.560Z,2.33
2022-12-12T16:12:49.713Z,2.35
2022-12-12T16:15:22.988Z,2.39
2022-12-12T16:18:02.608Z,2.41
2022-12-12T16:20:35.540Z,2.42
2022-12-12T16:23:21.392Z,2.42
2022-12-12T16:25:53.324Z,2.40
2022-12-12T16:28:26.251Z,2.39
2022-12-12T16:30:59.061Z,2.36
2022-12-12T16:33:32.958Z,2.32
2022-12-12T16:36:06.435Z,2.29
2022-12-12T16:38:40.441Z,2.27
2022-12-12T16:41:14.672Z,2.27
2022-12-12T16:43:46.352Z,2.28
2022-12-12T16:46:19.448Z,2.30
2022-12-12T16:48:52.209Z,2.34
2022-12-12T16:51:28.133Z,2.37
2022-12-12T16:54:01.068Z,2.38
2022-12-12T16:56:33.102Z,2.37
2022-12-12T16:59:05.103Z,2.34
2022-12-12T17:01:39.052Z,2.30
2022-12-12T17:04:17.407Z,2.25
2022-12-12T17:06:49.230Z,2.19
2022-12-12T17:09:26.801Z,2.16
2022-12-12T17:12:01.991Z,2.15
2022-12-12T17:14:34.230Z,2.15
2022-12-12T17:17:07.021Z,2.15
2022-12-12T17:19:39.329Z,2.13
2022-12-12T17:22:11.472Z,2.07
2022-12-12T17:24:43.890Z,2.00
2022-12-12T17:27:15.796Z,1.96
2022-12-12T17:29:48.848Z,1.96
2022-12-12T17:32:24.397Z,1.96
2022-12-12T17:34:56.806Z,1.97
2022-12-12T17:37:30.784Z,2.00
2022-12-12T17:40:06.741Z,2.03
2022-12-12T17:42:43.733Z,2.05
2022-12-12T17:45:21.905Z,2.06
2022-12-12T17:47:54.575Z,2.04
2022-12-12T17:50:27.704Z,2.02
2022-12-12T17:53:00.539Z,2.00
2022-12-12T17:55:54.695Z,1.99
2022-12-12T17:58:33.646Z,1.99
2022-12-12T18:01:12.040Z,2.01
2022-12-12T18:03:45.444Z,2.03
2022-12-12T18:06:19.636Z,2.04
2022-12-12T18:08:52.866Z,2.07
2022-12-12T18:11:27.857Z,2.07
2022-12-12T18:14:02.708Z,2.05
2022-12-12T18:16:36.314Z,2.03
2022-12-12T18:19:08.385Z,2.00
2022-12-12T18:24:35.014Z,1.90
2022-12-12T18:27:07.681Z,1.88
2022-12-12T18:29:44.512Z,1.88
2022-12-12T18:32:19.054Z,1.86
2022-12-12T18:34:54.950Z,1.84
2022-12-12T18:37:28.608Z,1.92
2022-12-12T18:40:00.842Z,1.96
2022-12-12T18:42:36.290Z,1.96
2022-12-12T18:45:17.746Z,1.95
2022-12-12T18:47:50.839Z,1.91
2022-12-12T18:50:25.568Z,1.88
2022-12-12T18:53:04.460Z,1.85
2022-12-12T18:55:37.468Z,1.82
2022-12-12T18:58:14.932Z,1.80
2022-12-12T19:00:49.009Z,1.77
2022-12-12T19:03:22.696Z,1.71
2022-12-12T19:06:04.362Z,1.65
2022-12-12T19:08:39.164Z,1.59
2022-12-12T19:11:13.774Z,1.54
2022-12-12T19:13:50.205Z,1.49
2022-12-12T19:16:24.621Z,1.43
2022-12-12T19:19:02.372Z,1.35
2022-12-12T19:21:39.944Z,1.30
2022-12-12T19:24:14.708Z,1.27
2022-12-12T19:26:51.684Z,1.24
2022-12-12T19:29:28.923Z,1.20
2022-12-12T19:32:04.819Z,1.19
2022-12-12T19:34:40.195Z,1.20
2022-12-12T19:37:15.489Z,1.20
2022-12-12T19:39:53.294Z,1.20
2022-12-12T19:42:30.235Z,1.20
2022-12-12T19:45:05.613Z,1.19
2022-12-12T19:47:40.550Z,1.18
2022-12-12T19:50:16.894Z,1.13
2022-12-12T19:52:52.258Z,1.10
2022-12-12T19:55:31.242Z,1.10
2022-12-12T19:58:08.940Z,1.13
2022-12-12T20:00:42.574Z,1.17
2022-12-12T20:03:18.278Z,1.21
2022-12-12T20:06:03.411Z,1.25
2022-12-12T20:08:38.098Z,1.27
2022-12-12T20:11:12.900Z,1.26
2022-12-12T20:13:52.133Z,1.23
2022-12-12T20:16:29.135Z,1.25
2022-12-12T20:19:10.071Z,1.28
2022-12-12T20:22:02.437Z,1.23
2022-12-12T20:24:40.567Z,1.18
2022-12-12T20:27:16.964Z,1.16
2022-12-12T20:29:55.321Z,1.18
2022-12-12T20:32:31.500Z,1.21
2022-12-12T20:35:04.212Z,1.27
2022-12-12T20:37:37.406Z,1.30
2022-12-12T20:40:14.896Z,1.34
2022-12-12T20:42:57.169Z,1.36
2022-12-12T20:45:34.490Z,1.42
2022-12-12T20:48:08.096Z,1.46
2022-12-12T20:50:42.571Z,1.48
2022-12-12T20:53:18.822Z,1.48
2022-12-12T20:55:53.041Z,1.46
2022-12-12T20:58:27.069Z,1.44
2022-12-12T21:00:59.675Z,1.40
2022-12-12T21:03:35.285Z,1.38
2022-12-12T21:06:14.501Z,1.33
2022-12-12T21:08:48.696Z,1.27
2022-12-12T21:11:23.173Z,1.20
2022-12-12T21:13:55.619Z,1.15
2022-12-12T21:16:28.704Z,1.11
2022-12-12T21:19:02.694Z,1.07
2022-12-12T21:21:35.201Z,1.02
2022-12-12T21:24:08.933Z,0.99
2022-12-12T21:26:41.412Z,0.98
2022-12-12T21:29:13.763Z,0.97
2022-12-12T21:31:51.628Z,0.96
2022-12-12T21:34:25.219Z,0.95
2022-12-12T21:36:57.598Z,0.95
2022-12-12T21:39:30.721Z,0.96
2022-12-12T21:42:02.519Z,0.98
2022-12-12T21:44:34.569Z,0.97
2022-12-12T21:47:09.481Z,0.97
2022-12-12T21:49:41.472Z,0.95
2022-12-12T21:52:15.267Z,0.93
2022-12-12T21:54:47.116Z,0.93
2022-12-12T21:57:24.639Z,0.94
2022-12-12T21:59:57.230Z,0.93
2022-12-12T22:02:29.178Z,0.90
2022-12-12T22:05:02.609Z,0.84
2022-12-12T22:07:36.256Z,0.76
2022-12-12T22:10:11.100Z,0.70
2022-12-12T22:12:43.782Z,0.65
2022-12-12T22:15:29.314Z,0.62
2022-12-12T22:18:01.309Z,0.61
2022-12-12T22:20:35.981Z,0.61
2022-12-12T22:23:08.280Z,0.63
2022-12-12T22:25:40.191Z,0.69
2022-12-12T22:28:12.601Z,0.74
2022-12-12T22:30:45.368Z,0.77
2022-12-12T22:33:17.850Z,0.74
2022-12-12T22:35:49.849Z,0.68
2022-12-12T22:38:21.815Z,0.63
2022-12-12T22:40:56.849Z,0.60
2022-12-12T22:43:28.412Z,0.59
2022-12-12T22:46:04.030Z,0.56
2022-12-12T22:48:36.642Z,0.57
2022-12-12T22:51:15.247Z,0.57
2022-12-12T22:53:47.967Z,0.58
2022-12-12T22:56:19.641Z,0.58
2022-12-12T22:58:51.246Z,0.55
2022-12-12T23:01:24.559Z,0.54
2022-12-12T23:03:56.799Z,0.56
2022-12-12T23:06:29.700Z,0.58
2022-12-12T23:09:03.241Z,0.54
2022-12-12T23:11:35.389Z,0.50
2022-12-12T23:14:07.832Z,0.46
2022-12-12T23:16:39.558Z,0.42
2022-12-12T23:19:12.137Z,0.42
2022-12-12T23:21:44.338Z,0.42
2022-12-12T23:24:16.164Z,0.44
2022-12-12T23:26:47.859Z,0.47
2022-12-12T23:29:20.831Z,0.49
2022-12-12T23:31:53.354Z,0.51
2022-12-12T23:34:25.649Z,0.57
2022-12-12T23:36:58.526Z,0.64
2022-12-12T23:39:31.128Z,0.67
2022-12-12T23:42:03.351Z,0.64
2022-12-12T23:44:35.918Z,0.59
2022-12-12T23:47:07.807Z,0.54
2022-12-12T23:49:39.829Z,0.49
2022-12-12T23:52:12.221Z,0.45
2022-12-12T23:54:44.232Z,0.42
2022-12-12T23:57:15.986Z,0.41
2022-12-12T23:59:47.584Z,0.43
